sensor_id;sensor_type;location;lat;lon;timestamp;temperature;humidity
4964;DHT22;2497;47.410;9.740;2023-09-19T00:00:38;15.70;99.90
4964;DHT22;2497;47.410;9.740;2023-09-19T00:03:07;15.80;99.90
4964;DHT22;2497;47.410;9.740;2023-09-19T00:05:37;15.80;99.90
4964;DHT22;2497;47.410;9.740;2023-09-19T00:08:05;15.80;99.90
4964;DHT22;2497;47.410;9.740;2023-09-19T00:10:33;15.80;99.90
4964;DHT22;2497;47.410;9.740;2023-09-19T00:13:03;15.90;99.90
4964;DHT22;2497;47.410;9.740;2023-09-19T00:15:39;15.80;99.90
4964;DHT22;2497;47.410;9.740;2023-09-19T00:18:07;15.80;99.90
4964;DHT22;2497;47.410;9.740;2023-09-19T00:20:38;15.70;99.90
4964;DHT22;2497;47.410;9.740;2023-09-19T00:23:05;15.60;99.90
4964;DHT22;2497;47.410;9.740;2023-09-19T00:25:34;15.50;99.90
4964;DHT22;2497;47.410;9.740;2023-09-19T00:28:05;15.50;99.90
4964;DHT22;2497;47.410;9.740;2023-09-19T00:30:33;15.40;99.90
4964;DHT22;2497;47.410;9.740;2023-09-19T00:33:00;15.50;99.90
4964;DHT22;2497;47.410;9.740;2023-09-19T00:35:31;15.40;99.90
4964;DHT22;2497;47.410;9.740;2023-09-19T00:37:58;15.50;99.90
4964;DHT22;2497;47.410;9.740;2023-09-19T00:40:25;15.40;99.90
4964;DHT22;2497;47.410;9.740;2023-09-19T00:42:57;15.40;99.90
4964;DHT22;2497;47.410;9.740;2023-09-19T00:45:27;15.30;99.90
4964;DHT22;2497;47.410;9.740;2023-09-19T00:47:55;15.30;99.90
4964;DHT22;2497;47.410;9.740;2023-09-19T00:50:25;15.40;99.90
4964;DHT22;2497;47.410;9.740;2023-09-19T00:52:55;15.40;99.90
4964;DHT22;2497;47.410;9.740;2023-09-19T00:55:24;15.40;99.90
4964;DHT22;2497;47.410;9.740;2023-09-19T00:57:52;15.50;99.90
4964;DHT22;2497;47.410;9.740;2023-09-19T01:00:22;15.50;99.90
4964;DHT22;2497;47.410;9.740;2023-09-19T01:02:54;15.50;99.90
4964;DHT22;2497;47.410;9.740;2023-09-19T01:05:21;15.50;99.90
4964;DHT22;2497;47.410;9.740;2023-09-19T01:07:49;15.50;99.90
4964;DHT22;2497;47.410;9.740;2023-09-19T01:10:19;15.50;99.90
4964;DHT22;2497;47.410;9.740;2023-09-19T01:12:52;15.50;99.90
4964;DHT22;2497;47.410;9.740;2023-09-19T01:15:28;15.60;99.90
4964;DHT22;2497;47.410;9.740;2023-09-19T01:18:11;15.60;99.90
4964;DHT22;2497;47.410;9.740;2023-09-19T01:20:48;15.70;99.90
4964;DHT22;2497;47.410;9.740;2023-09-19T01:23:23;15.60;99.90
4964;DHT22;2497;47.410;9.740;2023-09-19T01:26:11;15.60;99.90
4964;DHT22;2497;47.410;9.740;2023-09-19T01:28:51;15.60;99.90
4964;DHT22;2497;47.410;9.740;2023-09-19T01:31:23;15.70;99.90
4964;DHT22;2497;47.410;9.740;2023-09-19T01:33:57;15.60;99.90
4964;DHT22;2497;47.410;9.740;2023-09-19T01:36:27;15.60;99.90
4964;DHT22;2497;47.410;9.740;2023-09-19T01:38:56;15.60;99.90
4964;DHT22;2497;47.410;9.740;2023-09-19T01:41:29;15.70;99.90
4964;DHT22;2497;47.410;9.740;2023-09-19T01:44:00;15.70;99.90
4964;DHT22;2497;47.410;9.740;2023-09-19T01:46:35;15.80;99.90
4964;DHT22;2497;47.410;9.740;2023-09-19T01:49:13;15.80;99.90
4964;DHT22;2497;47.410;9.740;2023-09-19T01:51:48;15.80;99.90
4964;DHT22;2497;47.410;9.740;2023-09-19T01:54:22;15.80;99.90
4964;DHT22;2497;47.410;9.740;2023-09-19T01:56:57;15.80;99.90
4964;DHT22;2497;47.410;9.740;2023-09-19T01:59:34;15.80;99.90
4964;DHT22;2497;47.410;9.740;2023-09-19T02:02:04;15.80;99.90
4964;DHT22;2497;47.410;9.740;2023-09-19T02:04:34;15.80;99.90
4964;DHT22;2497;47.410;9.740;2023-09-19T02:07:02;15.80;99.90
4964;DHT22;2497;47.410;9.740;2023-09-19T02:09:31;15.80;99.90
4964;DHT22;2497;47.410;9.740;2023-09-19T02:12:00;15.90;99.90
4964;DHT22;2497;47.410;9.740;2023-09-19T02:14:30;15.80;99.90
4964;DHT22;2497;47.410;9.740;2023-09-19T02:16:58;15.80;99.90
4964;DHT22;2497;47.410;9.740;2023-09-19T02:19:26;15.80;99.90
4964;DHT22;2497;47.410;9.740;2023-09-19T02:21:55;15.80;99.90
4964;DHT22;2497;47.410;9.740;2023-09-19T02:24:22;15.90;99.90
4964;DHT22;2497;47.410;9.740;2023-09-19T02:26:52;15.90;99.90
4964;DHT22;2497;47.410;9.740;2023-09-19T02:29:20;16.00;99.90
4964;DHT22;2497;47.410;9.740;2023-09-19T02:31:48;16.00;99.90
4964;DHT22;2497;47.410;9.740;2023-09-19T02:34:15;16.00;99.90
4964;DHT22;2497;47.410;9.740;2023-09-19T02:36:50;16.00;99.90
4964;DHT22;2497;47.410;9.740;2023-09-19T02:39:19;15.90;99.90
4964;DHT22;2497;47.410;9.740;2023-09-19T02:41:46;15.90;99.90
4964;DHT22;2497;47.410;9.740;2023-09-19T02:44:14;15.90;99.90
4964;DHT22;2497;47.410;9.740;2023-09-19T02:46:41;15.90;99.90
4964;DHT22;2497;47.410;9.740;2023-09-19T02:49:08;15.90;99.90
4964;DHT22;2497;47.410;9.740;2023-09-19T02:51:35;15.90;99.90
4964;DHT22;2497;47.410;9.740;2023-09-19T02:54:04;15.90;99.90
4964;DHT22;2497;47.410;9.740;2023-09-19T02:56:32;15.90;99.90
4964;DHT22;2497;47.410;9.740;2023-09-19T02:58:59;15.90;99.90
4964;DHT22;2497;47.410;9.740;2023-09-19T03:01:27;16.00;99.90
4964;DHT22;2497;47.410;9.740;2023-09-19T03:03:55;15.90;99.90
4964;DHT22;2497;47.410;9.740;2023-09-19T03:06:22;15.90;99.90
4964;DHT22;2497;47.410;9.740;2023-09-19T03:08:49;15.90;99.90
4964;DHT22;2497;47.410;9.740;2023-09-19T03:11:19;15.90;99.90
4964;DHT22;2497;47.410;9.740;2023-09-19T03:13:51;16.00;99.90
4964;DHT22;2497;47.410;9.740;2023-09-19T03:16:19;15.90;99.90
4964;DHT22;2497;47.410;9.740;2023-09-19T03:18:47;16.00;99.90
4964;DHT22;2497;47.410;9.740;2023-09-19T03:21:15;15.90;99.90
4964;DHT22;2497;47.410;9.740;2023-09-19T03:23:42;15.90;99.90
4964;DHT22;2497;47.410;9.740;2023-09-19T03:26:12;15.90;99.90
4964;DHT22;2497;47.410;9.740;2023-09-19T03:28:41;15.90;99.90
4964;DHT22;2497;47.410;9.740;2023-09-19T03:31:11;15.90;99.90
4964;DHT22;2497;47.410;9.740;2023-09-19T03:33:38;15.90;99.90
4964;DHT22;2497;47.410;9.740;2023-09-19T03:36:08;15.90;99.90
4964;DHT22;2497;47.410;9.740;2023-09-19T03:38:35;15.90;99.90
4964;DHT22;2497;47.410;9.740;2023-09-19T03:41:03;15.90;99.90
4964;DHT22;2497;47.410;9.740;2023-09-19T03:43:31;16.00;99.90
4964;DHT22;2497;47.410;9.740;2023-09-19T03:46:06;15.90;99.90
4964;DHT22;2497;47.410;9.740;2023-09-19T03:48:38;15.90;99.90
4964;DHT22;2497;47.410;9.740;2023-09-19T03:51:08;15.90;99.90
4964;DHT22;2497;47.410;9.740;2023-09-19T03:53:35;15.90;99.90
4964;DHT22;2497;47.410;9.740;2023-09-19T03:56:41;15.80;99.90
4964;DHT22;2497;47.410;9.740;2023-09-19T03:58:57;15.80;99.90
4964;DHT22;2497;47.410;9.740;2023-09-19T04:01:25;15.80;99.90
4964;DHT22;2497;47.410;9.740;2023-09-19T04:03:53;15.80;99.90
4964;DHT22;2497;47.410;9.740;2023-09-19T04:06:20;15.80;99.90
4964;DHT22;2497;47.410;9.740;2023-09-19T04:08:47;15.80;99.90
4964;DHT22;2497;47.410;9.740;2023-09-19T04:11:15;15.70;99.90
4964;DHT22;2497;47.410;9.740;2023-09-19T04:13:42;15.70;99.90
4964;DHT22;2497;47.410;9.740;2023-09-19T04:16:09;15.60;99.90
4964;DHT22;2497;47.410;9.740;2023-09-19T04:18:39;15.50;99.90
4964;DHT22;2497;47.410;9.740;2023-09-19T04:21:06;15.50;99.90
4964;DHT22;2497;47.410;9.740;2023-09-19T04:23:34;15.50;99.90
4964;DHT22;2497;47.410;9.740;2023-09-19T04:26:01;15.50;99.90
4964;DHT22;2497;47.410;9.740;2023-09-19T04:28:29;15.40;99.90
4964;DHT22;2497;47.410;9.740;2023-09-19T04:31:00;15.50;99.90
4964;DHT22;2497;47.410;9.740;2023-09-19T04:33:27;15.40;99.90
4964;DHT22;2497;47.410;9.740;2023-09-19T04:35:56;15.40;99.90
4964;DHT22;2497;47.410;9.740;2023-09-19T04:38:23;15.50;99.90
4964;DHT22;2497;47.410;9.740;2023-09-19T04:40:50;15.50;99.90
4964;DHT22;2497;47.410;9.740;2023-09-19T04:43:24;15.50;99.90
4964;DHT22;2497;47.410;9.740;2023-09-19T04:45:54;15.50;99.90
4964;DHT22;2497;47.410;9.740;2023-09-19T04:48:21;15.50;99.90
4964;DHT22;2497;47.410;9.740;2023-09-19T04:50:51;15.60;99.90
4964;DHT22;2497;47.410;9.740;2023-09-19T04:53:22;15.60;99.90
4964;DHT22;2497;47.410;9.740;2023-09-19T04:55:52;15.60;99.90
4964;DHT22;2497;47.410;9.740;2023-09-19T04:58:21;15.50;99.90
4964;DHT22;2497;47.410;9.740;2023-09-19T05:00:48;15.50;99.90
4964;DHT22;2497;47.410;9.740;2023-09-19T05:03:20;15.60;99.90
4964;DHT22;2497;47.410;9.740;2023-09-19T05:05:48;15.60;99.90
4964;DHT22;2497;47.410;9.740;2023-09-19T05:08:15;15.60;99.90
4964;DHT22;2497;47.410;9.740;2023-09-19T05:10:44;15.80;99.90
4964;DHT22;2497;47.410;9.740;2023-09-19T05:13:11;15.70;99.90
4964;DHT22;2497;47.410;9.740;2023-09-19T05:15:39;15.80;99.90
4964;DHT22;2497;47.410;9.740;2023-09-19T05:18:06;15.80;99.90
4964;DHT22;2497;47.410;9.740;2023-09-19T05:20:39;15.70;99.90
4964;DHT22;2497;47.410;9.740;2023-09-19T05:23:07;15.70;99.90
4964;DHT22;2497;47.410;9.740;2023-09-19T05:25:38;15.70;99.90
4964;DHT22;2497;47.410;9.740;2023-09-19T05:28:07;15.70;99.90
4964;DHT22;2497;47.410;9.740;2023-09-19T05:30:35;15.60;99.90
4964;DHT22;2497;47.410;9.740;2023-09-19T05:33:05;15.70;99.90
4964;DHT22;2497;47.410;9.740;2023-09-19T05:35:33;15.70;99.90
4964;DHT22;2497;47.410;9.740;2023-09-19T05:38:00;15.70;99.90
4964;DHT22;2497;47.410;9.740;2023-09-19T05:40:27;15.70;99.90
4964;DHT22;2497;47.410;9.740;2023-09-19T05:42:54;15.70;99.90
4964;DHT22;2497;47.410;9.740;2023-09-19T05:45:23;15.80;99.90
4964;DHT22;2497;47.410;9.740;2023-09-19T05:47:52;15.80;99.90
4964;DHT22;2497;47.410;9.740;2023-09-19T05:50:21;15.80;99.90
4964;DHT22;2497;47.410;9.740;2023-09-19T05:52:54;15.80;99.90
4964;DHT22;2497;47.410;9.740;2023-09-19T05:55:21;15.80;99.90
4964;DHT22;2497;47.410;9.740;2023-09-19T05:57:51;15.90;99.90
4964;DHT22;2497;47.410;9.740;2023-09-19T06:00:19;15.90;99.90
4964;DHT22;2497;47.410;9.740;2023-09-19T06:02:51;15.90;99.90
4964;DHT22;2497;47.410;9.740;2023-09-19T06:05:18;15.80;99.90
4964;DHT22;2497;47.410;9.740;2023-09-19T06:07:45;15.90;99.90
4964;DHT22;2497;47.410;9.740;2023-09-19T06:10:13;15.90;99.90
4964;DHT22;2497;47.410;9.740;2023-09-19T06:12:40;16.00;99.90
4964;DHT22;2497;47.410;9.740;2023-09-19T06:15:10;16.00;99.90
4964;DHT22;2497;47.410;9.740;2023-09-19T06:17:41;16.00;99.90
4964;DHT22;2497;47.410;9.740;2023-09-19T06:20:10;16.00;99.90
4964;DHT22;2497;47.410;9.740;2023-09-19T06:22:41;16.00;99.90
4964;DHT22;2497;47.410;9.740;2023-09-19T06:25:09;16.10;99.90
4964;DHT22;2497;47.410;9.740;2023-09-19T06:27:38;16.20;99.90
4964;DHT22;2497;47.410;9.740;2023-09-19T06:30:08;16.20;99.90
4964;DHT22;2497;47.410;9.740;2023-09-19T06:32:37;16.10;99.90
4964;DHT22;2497;47.410;9.740;2023-09-19T06:35:05;16.10;99.90
4964;DHT22;2497;47.410;9.740;2023-09-19T06:37:41;16.20;99.90
4964;DHT22;2497;47.410;9.740;2023-09-19T06:40:11;16.20;99.90
4964;DHT22;2497;47.410;9.740;2023-09-19T06:42:40;16.20;99.90
4964;DHT22;2497;47.410;9.740;2023-09-19T06:45:08;16.20;99.90
4964;DHT22;2497;47.410;9.740;2023-09-19T06:47:43;16.20;99.90
4964;DHT22;2497;47.410;9.740;2023-09-19T06:50:11;16.30;99.90
4964;DHT22;2497;47.410;9.740;2023-09-19T06:52:42;16.30;99.90
4964;DHT22;2497;47.410;9.740;2023-09-19T06:55:09;16.40;99.90
4964;DHT22;2497;47.410;9.740;2023-09-19T06:57:40;16.40;99.90
4964;DHT22;2497;47.410;9.740;2023-09-19T07:00:09;16.30;99.90
4964;DHT22;2497;47.410;9.740;2023-09-19T07:02:42;16.20;99.90
4964;DHT22;2497;47.410;9.740;2023-09-19T07:05:09;16.30;99.90
4964;DHT22;2497;47.410;9.740;2023-09-19T07:07:37;16.20;99.90
4964;DHT22;2497;47.410;9.740;2023-09-19T07:10:08;16.20;99.90
4964;DHT22;2497;47.410;9.740;2023-09-19T07:12:36;16.20;99.90
4964;DHT22;2497;47.410;9.740;2023-09-19T07:15:04;16.30;99.90
4964;DHT22;2497;47.410;9.740;2023-09-19T07:17:34;16.30;99.90
4964;DHT22;2497;47.410;9.740;2023-09-19T07:20:02;16.40;99.90
4964;DHT22;2497;47.410;9.740;2023-09-19T07:22:33;16.40;99.90
4964;DHT22;2497;47.410;9.740;2023-09-19T07:25:00;16.50;99.90
4964;DHT22;2497;47.410;9.740;2023-09-19T07:27:29;16.40;99.90
4964;DHT22;2497;47.410;9.740;2023-09-19T07:29:56;16.50;99.90
4964;DHT22;2497;47.410;9.740;2023-09-19T07:32:24;16.50;99.90
4964;DHT22;2497;47.410;9.740;2023-09-19T07:34:53;16.50;99.90
4964;DHT22;2497;47.410;9.740;2023-09-19T07:37:24;16.60;99.90
4964;DHT22;2497;47.410;9.740;2023-09-19T07:39:51;16.70;99.90
4964;DHT22;2497;47.410;9.740;2023-09-19T07:42:18;16.70;99.90
4964;DHT22;2497;47.410;9.740;2023-09-19T07:44:50;16.70;99.90
4964;DHT22;2497;47.410;9.740;2023-09-19T07:47:19;16.70;99.90
4964;DHT22;2497;47.410;9.740;2023-09-19T07:49:47;16.80;99.90
4964;DHT22;2497;47.410;9.740;2023-09-19T07:52:17;16.80;99.90
4964;DHT22;2497;47.410;9.740;2023-09-19T07:54:45;16.80;99.90
4964;DHT22;2497;47.410;9.740;2023-09-19T07:57:13;16.80;99.90
4964;DHT22;2497;47.410;9.740;2023-09-19T07:59:41;16.80;99.90
4964;DHT22;2497;47.410;9.740;2023-09-19T08:02:10;16.80;99.90
4964;DHT22;2497;47.410;9.740;2023-09-19T08:04:41;16.80;99.90
4964;DHT22;2497;47.410;9.740;2023-09-19T08:07:08;16.90;99.90
4964;DHT22;2497;47.410;9.740;2023-09-19T08:09:36;17.00;99.90
4964;DHT22;2497;47.410;9.740;2023-09-19T08:12:07;16.90;99.90
4964;DHT22;2497;47.410;9.740;2023-09-19T08:14:38;17.00;99.90
4964;DHT22;2497;47.410;9.740;2023-09-19T08:17:11;17.10;99.90
4964;DHT22;2497;47.410;9.740;2023-09-19T08:19:45;17.20;99.90
4964;DHT22;2497;47.410;9.740;2023-09-19T08:22:15;17.20;99.90
4964;DHT22;2497;47.410;9.740;2023-09-19T08:24:42;17.30;99.90
4964;DHT22;2497;47.410;9.740;2023-09-19T08:27:10;17.30;99.90
4964;DHT22;2497;47.410;9.740;2023-09-19T08:29:38;17.40;99.90
4964;DHT22;2497;47.410;9.740;2023-09-19T08:32:07;17.60;99.90
4964;DHT22;2497;47.410;9.740;2023-09-19T08:34:37;17.60;99.90
4964;DHT22;2497;47.410;9.740;2023-09-19T08:37:04;17.80;99.90
4964;DHT22;2497;47.410;9.740;2023-09-19T08:39:31;17.90;99.90
4964;DHT22;2497;47.410;9.740;2023-09-19T08:42:01;18.10;99.90
4964;DHT22;2497;47.410;9.740;2023-09-19T08:44:36;18.20;99.90
4964;DHT22;2497;47.410;9.740;2023-09-19T08:47:09;18.50;99.90
4964;DHT22;2497;47.410;9.740;2023-09-19T08:49:47;18.80;99.90
4964;DHT22;2497;47.410;9.740;2023-09-19T08:52:22;19.50;99.90
4964;DHT22;2497;47.410;9.740;2023-09-19T08:54:52;19.50;99.90
4964;DHT22;2497;47.410;9.740;2023-09-19T08:57:22;19.70;99.90
4964;DHT22;2497;47.410;9.740;2023-09-19T08:59:50;19.60;99.90
4964;DHT22;2497;47.410;9.740;2023-09-19T09:02:22;19.60;99.90
4964;DHT22;2497;47.410;9.740;2023-09-19T09:04:53;19.50;99.90
4964;DHT22;2497;47.410;9.740;2023-09-19T09:07:21;19.50;99.90
4964;DHT22;2497;47.410;9.740;2023-09-19T09:09:49;19.10;99.90
4964;DHT22;2497;47.410;9.740;2023-09-19T09:12:17;19.00;99.90
4964;DHT22;2497;47.410;9.740;2023-09-19T09:14:46;19.00;99.90
4964;DHT22;2497;47.410;9.740;2023-09-19T09:17:16;18.90;99.90
4964;DHT22;2497;47.410;9.740;2023-09-19T09:19:46;18.70;99.90
4964;DHT22;2497;47.410;9.740;2023-09-19T09:22:17;18.60;99.90
4964;DHT22;2497;47.410;9.740;2023-09-19T09:24:53;18.50;99.90
4964;DHT22;2497;47.410;9.740;2023-09-19T09:27:23;18.40;99.90
4964;DHT22;2497;47.410;9.740;2023-09-19T09:29:52;18.30;99.90
4964;DHT22;2497;47.410;9.740;2023-09-19T09:32:23;18.30;99.90
4964;DHT22;2497;47.410;9.740;2023-09-19T09:34:53;18.30;99.90
4964;DHT22;2497;47.410;9.740;2023-09-19T09:37:22;18.30;99.90
4964;DHT22;2497;47.410;9.740;2023-09-19T09:39:51;18.40;99.90
4964;DHT22;2497;47.410;9.740;2023-09-19T09:42:32;18.50;99.90
4964;DHT22;2497;47.410;9.740;2023-09-19T09:45:14;18.40;99.90
4964;DHT22;2497;47.410;9.740;2023-09-19T09:47:43;18.30;99.90
4964;DHT22;2497;47.410;9.740;2023-09-19T09:50:24;18.20;99.90
4964;DHT22;2497;47.410;9.740;2023-09-19T09:52:56;18.00;99.90
4964;DHT22;2497;47.410;9.740;2023-09-19T09:55:58;17.90;99.90
4964;DHT22;2497;47.410;9.740;2023-09-19T09:58:26;17.80;99.90
4964;DHT22;2497;47.410;9.740;2023-09-19T10:00:59;17.70;99.90
4964;DHT22;2497;47.410;9.740;2023-09-19T10:03:35;17.70;99.90
4964;DHT22;2497;47.410;9.740;2023-09-19T10:06:10;17.80;99.90
4964;DHT22;2497;47.410;9.740;2023-09-19T10:09:01;17.80;99.90
4964;DHT22;2497;47.410;9.740;2023-09-19T10:11:41;18.00;99.90
4964;DHT22;2497;47.410;9.740;2023-09-19T10:14:11;18.30;99.90
4964;DHT22;2497;47.410;9.740;2023-09-19T10:16:42;18.60;99.90
4964;DHT22;2497;47.410;9.740;2023-09-19T10:19:13;18.70;99.90
4964;DHT22;2497;47.410;9.740;2023-09-19T10:21:43;18.80;99.90
4964;DHT22;2497;47.410;9.740;2023-09-19T10:24:14;19.00;99.90
4964;DHT22;2497;47.410;9.740;2023-09-19T10:26:44;19.20;99.90
4964;DHT22;2497;47.410;9.740;2023-09-19T10:29:13;19.40;99.90
4964;DHT22;2497;47.410;9.740;2023-09-19T10:31:44;19.50;99.90
4964;DHT22;2497;47.410;9.740;2023-09-19T10:34:15;19.40;99.90
4964;DHT22;2497;47.410;9.740;2023-09-19T10:36:45;19.30;99.90
4964;DHT22;2497;47.410;9.740;2023-09-19T10:39:16;19.40;99.90
4964;DHT22;2497;47.410;9.740;2023-09-19T10:41:50;19.40;99.90
4964;DHT22;2497;47.410;9.740;2023-09-19T10:44:25;19.50;99.90
4964;DHT22;2497;47.410;9.740;2023-09-19T10:46:54;19.60;99.90
4964;DHT22;2497;47.410;9.740;2023-09-19T10:49:22;19.60;99.90
4964;DHT22;2497;47.410;9.740;2023-09-19T10:51:54;19.60;99.90
4964;DHT22;2497;47.410;9.740;2023-09-19T10:54:28;19.60;99.90
4964;DHT22;2497;47.410;9.740;2023-09-19T10:56:56;19.60;99.90
4964;DHT22;2497;47.410;9.740;2023-09-19T10:59:27;19.60;99.90
4964;DHT22;2497;47.410;9.740;2023-09-19T11:02:07;19.60;99.90
4964;DHT22;2497;47.410;9.740;2023-09-19T11:04:43;19.70;99.90
4964;DHT22;2497;47.410;9.740;2023-09-19T11:07:14;19.80;99.90
4964;DHT22;2497;47.410;9.740;2023-09-19T11:09:50;20.00;99.90
4964;DHT22;2497;47.410;9.740;2023-09-19T11:12:49;20.40;99.90
4964;DHT22;2497;47.410;9.740;2023-09-19T11:18:51;21.30;99.90
4964;DHT22;2497;47.410;9.740;2023-09-19T11:24:33;21.60;99.90
4964;DHT22;2497;47.410;9.740;2023-09-19T11:27:15;21.50;99.90
4964;DHT22;2497;47.410;9.740;2023-09-19T11:29:47;21.70;99.90
4964;DHT22;2497;47.410;9.740;2023-09-19T11:32:17;21.70;99.90
4964;DHT22;2497;47.410;9.740;2023-09-19T11:35:07;21.70;99.90
4964;DHT22;2497;47.410;9.740;2023-09-19T11:37:59;21.70;99.90
4964;DHT22;2497;47.410;9.740;2023-09-19T11:40:52;21.60;99.90
4964;DHT22;2497;47.410;9.740;2023-09-19T11:43:32;21.60;99.90
4964;DHT22;2497;47.410;9.740;2023-09-19T11:46:05;21.80;99.90
4964;DHT22;2497;47.410;9.740;2023-09-19T11:48:33;22.20;99.90
4964;DHT22;2497;47.410;9.740;2023-09-19T11:51:12;22.30;99.90
4964;DHT22;2497;47.410;9.740;2023-09-19T11:53:46;22.70;99.90
4964;DHT22;2497;47.410;9.740;2023-09-19T11:56:16;22.80;99.90
4964;DHT22;2497;47.410;9.740;2023-09-19T11:58:45;22.40;99.90
4964;DHT22;2497;47.410;9.740;2023-09-19T12:01:21;22.70;99.90
4964;DHT22;2497;47.410;9.740;2023-09-19T12:03:53;22.60;99.90
4964;DHT22;2497;47.410;9.740;2023-09-19T12:06:30;22.80;99.90
4964;DHT22;2497;47.410;9.740;2023-09-19T12:08:58;22.70;99.90
4964;DHT22;2497;47.410;9.740;2023-09-19T12:11:32;22.60;99.90
4964;DHT22;2497;47.410;9.740;2023-09-19T12:14:02;22.70;99.90
4964;DHT22;2497;47.410;9.740;2023-09-19T12:16:32;23.10;99.90
4964;DHT22;2497;47.410;9.740;2023-09-19T12:19:18;22.80;99.90
4964;DHT22;2497;47.410;9.740;2023-09-19T12:21:54;22.70;99.90
4964;DHT22;2497;47.410;9.740;2023-09-19T12:24:26;22.80;99.90
4964;DHT22;2497;47.410;9.740;2023-09-19T12:27:00;22.70;99.90
4964;DHT22;2497;47.410;9.740;2023-09-19T12:29:44;22.30;99.90
4964;DHT22;2497;47.410;9.740;2023-09-19T12:32:14;22.20;99.90
4964;DHT22;2497;47.410;9.740;2023-09-19T12:34:49;22.00;99.90
4964;DHT22;2497;47.410;9.740;2023-09-19T12:37:18;22.50;99.90
4964;DHT22;2497;47.410;9.740;2023-09-19T12:40:04;23.00;99.90
4964;DHT22;2497;47.410;9.740;2023-09-19T12:42:42;23.10;99.90
4964;DHT22;2497;47.410;9.740;2023-09-19T12:45:12;23.50;99.90
4964;DHT22;2497;47.410;9.740;2023-09-19T12:48:20;23.70;99.90
4964;DHT22;2497;47.410;9.740;2023-09-19T12:51:04;23.50;99.90
4964;DHT22;2497;47.410;9.740;2023-09-19T12:53:38;22.80;99.90
4964;DHT22;2497;47.410;9.740;2023-09-19T12:56:13;22.30;99.90
4964;DHT22;2497;47.410;9.740;2023-09-19T12:58:51;22.10;99.90
4964;DHT22;2497;47.410;9.740;2023-09-19T13:01:22;21.90;99.90
4964;DHT22;2497;47.410;9.740;2023-09-19T13:04:10;22.00;99.90
4964;DHT22;2497;47.410;9.740;2023-09-19T13:06:44;22.20;99.90
4964;DHT22;2497;47.410;9.740;2023-09-19T13:09:14;22.30;99.90
4964;DHT22;2497;47.410;9.740;2023-09-19T13:11:43;22.30;99.90
4964;DHT22;2497;47.410;9.740;2023-09-19T13:14:16;21.90;99.90
4964;DHT22;2497;47.410;9.740;2023-09-19T13:16:56;21.80;99.90
4964;DHT22;2497;47.410;9.740;2023-09-19T13:19:37;21.90;99.90
4964;DHT22;2497;47.410;9.740;2023-09-19T13:24:49;21.70;99.90
4964;DHT22;2497;47.410;9.740;2023-09-19T13:27:21;21.60;99.90
4964;DHT22;2497;47.410;9.740;2023-09-19T13:29:49;21.50;99.90
4964;DHT22;2497;47.410;9.740;2023-09-19T13:32:17;21.50;99.90
4964;DHT22;2497;47.410;9.740;2023-09-19T13:34:45;22.00;99.90
4964;DHT22;2497;47.410;9.740;2023-09-19T13:37:12;22.20;99.90
4964;DHT22;2497;47.410;9.740;2023-09-19T13:39:42;22.30;99.90
4964;DHT22;2497;47.410;9.740;2023-09-19T13:42:13;22.40;99.90
4964;DHT22;2497;47.410;9.740;2023-09-19T13:44:42;22.40;99.90
4964;DHT22;2497;47.410;9.740;2023-09-19T13:47:09;22.20;99.90
4964;DHT22;2497;47.410;9.740;2023-09-19T13:49:41;22.20;99.90
4964;DHT22;2497;47.410;9.740;2023-09-19T13:52:09;22.20;99.90
4964;DHT22;2497;47.410;9.740;2023-09-19T13:54:38;22.30;99.90
4964;DHT22;2497;47.410;9.740;2023-09-19T13:57:07;22.10;99.90
4964;DHT22;2497;47.410;9.740;2023-09-19T13:59:35;22.20;99.90
4964;DHT22;2497;47.410;9.740;2023-09-19T14:02:03;22.20;99.90
4964;DHT22;2497;47.410;9.740;2023-09-19T14:04:34;22.20;99.90
4964;DHT22;2497;47.410;9.740;2023-09-19T14:07:03;22.10;99.90
4964;DHT22;2497;47.410;9.740;2023-09-19T14:09:30;21.90;99.90
4964;DHT22;2497;47.410;9.740;2023-09-19T14:11:57;21.80;99.90
4964;DHT22;2497;47.410;9.740;2023-09-19T14:14:25;21.80;99.90
4964;DHT22;2497;47.410;9.740;2023-09-19T14:16:52;21.70;99.90
4964;DHT22;2497;47.410;9.740;2023-09-19T14:19:19;21.60;99.90
4964;DHT22;2497;47.410;9.740;2023-09-19T14:21:47;21.80;99.90
4964;DHT22;2497;47.410;9.740;2023-09-19T14:24:18;21.90;99.90
4964;DHT22;2497;47.410;9.740;2023-09-19T14:26:46;22.20;99.90
4964;DHT22;2497;47.410;9.740;2023-09-19T14:29:13;22.20;99.90
4964;DHT22;2497;47.410;9.740;2023-09-19T14:31:43;22.10;99.90
4964;DHT22;2497;47.410;9.740;2023-09-19T14:34:10;22.00;99.90
4964;DHT22;2497;47.410;9.740;2023-09-19T14:36:38;22.10;99.90
4964;DHT22;2497;47.410;9.740;2023-09-19T14:39:06;22.00;99.90
4964;DHT22;2497;47.410;9.740;2023-09-19T14:41:35;22.00;99.90
4964;DHT22;2497;47.410;9.740;2023-09-19T14:44:03;21.90;99.90
4964;DHT22;2497;47.410;9.740;2023-09-19T14:46:31;21.80;99.90
4964;DHT22;2497;47.410;9.740;2023-09-19T14:48:58;21.70;99.90
4964;DHT22;2497;47.410;9.740;2023-09-19T14:51:29;21.80;99.90
4964;DHT22;2497;47.410;9.740;2023-09-19T14:53:57;21.80;99.90
4964;DHT22;2497;47.410;9.740;2023-09-19T14:56:27;21.80;99.90
4964;DHT22;2497;47.410;9.740;2023-09-19T14:58:59;21.90;99.90
4964;DHT22;2497;47.410;9.740;2023-09-19T15:01:29;21.90;99.90
4964;DHT22;2497;47.410;9.740;2023-09-19T15:03:58;22.00;99.90
4964;DHT22;2497;47.410;9.740;2023-09-19T15:06:27;22.10;99.90
4964;DHT22;2497;47.410;9.740;2023-09-19T15:08:55;22.30;99.90
4964;DHT22;2497;47.410;9.740;2023-09-19T15:11:23;22.30;99.90
4964;DHT22;2497;47.410;9.740;2023-09-19T15:13:52;22.20;99.90
4964;DHT22;2497;47.410;9.740;2023-09-19T15:16:24;22.20;99.90
4964;DHT22;2497;47.410;9.740;2023-09-19T15:18:53;22.10;99.90
4964;DHT22;2497;47.410;9.740;2023-09-19T15:21:22;22.20;99.90
4964;DHT22;2497;47.410;9.740;2023-09-19T15:23:51;22.10;99.90
4964;DHT22;2497;47.410;9.740;2023-09-19T15:26:19;22.20;99.90
4964;DHT22;2497;47.410;9.740;2023-09-19T15:28:49;22.10;99.90
4964;DHT22;2497;47.410;9.740;2023-09-19T15:31:18;22.00;99.90
4964;DHT22;2497;47.410;9.740;2023-09-19T15:33:49;21.90;99.90
4964;DHT22;2497;47.410;9.740;2023-09-19T15:36:18;21.90;99.90
4964;DHT22;2497;47.410;9.740;2023-09-19T15:38:59;21.80;99.90
4964;DHT22;2497;47.410;9.740;2023-09-19T15:41:29;21.70;99.90
4964;DHT22;2497;47.410;9.740;2023-09-19T15:43:58;21.70;99.90
4964;DHT22;2497;47.410;9.740;2023-09-19T15:46:27;21.80;99.90
4964;DHT22;2497;47.410;9.740;2023-09-19T15:48:58;21.90;99.90
4964;DHT22;2497;47.410;9.740;2023-09-19T15:51:27;21.90;99.90
4964;DHT22;2497;47.410;9.740;2023-09-19T15:53:56;21.90;99.90
4964;DHT22;2497;47.410;9.740;2023-09-19T15:56:26;21.90;99.90
4964;DHT22;2497;47.410;9.740;2023-09-19T15:58:55;22.00;99.90
4964;DHT22;2497;47.410;9.740;2023-09-19T16:01:24;21.80;99.90
4964;DHT22;2497;47.410;9.740;2023-09-19T16:03:54;21.90;99.90
4964;DHT22;2497;47.410;9.740;2023-09-19T16:06:29;22.00;99.90
4964;DHT22;2497;47.410;9.740;2023-09-19T16:08:58;22.30;99.90
4964;DHT22;2497;47.410;9.740;2023-09-19T16:11:32;22.50;99.90
4964;DHT22;2497;47.410;9.740;2023-09-19T16:14:01;22.50;99.90
4964;DHT22;2497;47.410;9.740;2023-09-19T16:16:31;22.60;99.90
4964;DHT22;2497;47.410;9.740;2023-09-19T16:19:02;22.60;99.90
4964;DHT22;2497;47.410;9.740;2023-09-19T16:21:34;22.40;99.90
4964;DHT22;2497;47.410;9.740;2023-09-19T16:24:03;22.20;99.90
4964;DHT22;2497;47.410;9.740;2023-09-19T16:26:33;22.10;99.90
4964;DHT22;2497;47.410;9.740;2023-09-19T16:29:02;22.00;99.90
4964;DHT22;2497;47.410;9.740;2023-09-19T16:31:31;21.90;99.90
4964;DHT22;2497;47.410;9.740;2023-09-19T16:34:02;21.70;99.90